createdAt,value
2022-12-25T00:00:50.806Z,23.30
2022-12-25T00:02:22.168Z,22.30
2022-12-25T00:03:53.823Z,21.34
2022-12-25T00:05:25.188Z,21.24
2022-12-25T00:06:57.939Z,20.20
2022-12-25T00:08:29.708Z,21.09
2022-12-25T00:10:01.002Z,19.77
2022-12-25T00:11:32.402Z,20.21
2022-12-25T00:13:03.839Z,20.76
2022-12-25T00:14:35.105Z,19.18
2022-12-25T00:16:06.368Z,19.78
2022-12-25T00:17:37.757Z,18.37
2022-12-25T00:19:09.032Z,19.75
2022-12-25T00:20:40.266Z,21.80
2022-12-25T00:22:11.642Z,19.27
2022-12-25T00:23:43.081Z,18.51
2022-12-25T00:25:14.531Z,19.09
2022-12-25T00:26:45.898Z,19.54
2022-12-25T00:28:17.236Z,18.25
2022-12-25T00:29:48.796Z,18.41
2022-12-25T00:31:20.152Z,20.09
2022-12-25T00:32:51.642Z,18.45
2022-12-25T00:34:22.919Z,19.51
2022-12-25T00:35:54.253Z,20.65
2022-12-25T00:37:25.534Z,15.97
2022-12-25T00:38:56.806Z,17.24
2022-12-25T00:40:28.227Z,16.93
2022-12-25T00:41:59.513Z,16.48
2022-12-25T00:43:30.826Z,18.11
2022-12-25T00:45:02.168Z,20.30
2022-12-25T00:46:33.567Z,16.78
2022-12-25T00:48:05.276Z,19.19
2022-12-25T00:49:36.759Z,19.63
2022-12-25T00:51:08.164Z,17.54
2022-12-25T00:52:39.498Z,16.03
2022-12-25T00:54:11.167Z,16.25
2022-12-25T00:55:42.810Z,18.29
2022-12-25T00:57:14.211Z,15.79
2022-12-25T00:58:45.618Z,15.35
2022-12-25T01:00:17.129Z,15.64
2022-12-25T01:01:49.170Z,15.28
2022-12-25T01:03:20.775Z,17.97
2022-12-25T01:04:52.074Z,13.63
2022-12-25T01:06:23.391Z,17.64
2022-12-25T01:07:54.931Z,18.57
2022-12-25T01:09:26.338Z,16.58
2022-12-25T01:10:57.650Z,16.04
2022-12-25T01:12:33.991Z,14.49
2022-12-25T01:14:05.365Z,13.77
2022-12-25T01:15:37.301Z,14.52
2022-12-25T01:17:08.761Z,12.11
2022-12-25T01:18:40.072Z,13.89
2022-12-25T01:20:11.371Z,13.12
2022-12-25T01:21:42.769Z,13.36
2022-12-25T01:23:14.206Z,13.95
2022-12-25T01:24:45.541Z,13.35
2022-12-25T01:26:17.072Z,13.72
2022-12-25T01:27:48.365Z,12.61
2022-12-25T01:29:20.200Z,14.13
2022-12-25T01:30:51.526Z,13.80
2022-12-25T01:32:22.854Z,13.42
2022-12-25T01:33:54.164Z,14.83
2022-12-25T01:35:25.460Z,13.50
2022-12-25T01:36:56.898Z,14.77
2022-12-25T01:38:28.218Z,15.73
2022-12-25T01:39:59.597Z,13.66
2022-12-25T01:41:30.899Z,12.02
2022-12-25T01:43:02.231Z,12.37
2022-12-25T01:44:33.640Z,14.90
2022-12-25T01:46:05.191Z,9.10
2022-12-25T01:47:36.483Z,11.98
2022-12-25T01:49:07.781Z,12.20
2022-12-25T01:50:40.391Z,10.24
2022-12-25T01:52:11.876Z,12.24
2022-12-25T01:53:43.185Z,12.19
2022-12-25T01:55:14.769Z,10.79
2022-12-25T01:56:46.090Z,11.25
2022-12-25T01:58:17.360Z,12.20
2022-12-25T01:59:48.764Z,12.32
2022-12-25T02:01:20.316Z,9.25
2022-12-25T02:02:52.045Z,11.24
2022-12-25T02:04:23.616Z,13.95
2022-12-25T02:05:54.932Z,13.17
2022-12-25T02:07:26.244Z,9.87
2022-12-25T02:08:57.687Z,10.62
2022-12-25T02:10:29.097Z,10.92
2022-12-25T02:12:00.508Z,10.82
2022-12-25T02:13:31.922Z,11.09
2022-12-25T02:15:06.134Z,9.95
2022-12-25T02:16:58.017Z,9.67
2022-12-25T02:18:30.174Z,11.41
2022-12-25T02:20:01.694Z,11.06
2022-12-25T02:21:33.104Z,13.03
2022-12-25T02:23:04.466Z,11.46
2022-12-25T02:24:35.809Z,10.70
2022-12-25T02:26:07.169Z,10.98
2022-12-25T02:27:38.447Z,8.50
2022-12-25T02:29:09.724Z,9.05
2022-12-25T02:30:40.987Z,9.80
2022-12-25T02:32:12.389Z,10.37
2022-12-25T02:33:43.727Z,8.98
2022-12-25T02:35:15.367Z,9.59
2022-12-25T02:36:46.676Z,9.76
2022-12-25T02:38:18.148Z,10.43
2022-12-25T02:39:49.464Z,8.27
2022-12-25T02:41:20.917Z,10.73
2022-12-25T02:42:52.338Z,10.04
2022-12-25T02:44:23.605Z,10.07
2022-12-25T02:45:55.028Z,11.14
2022-12-25T02:47:26.449Z,8.66
2022-12-25T02:48:57.872Z,10.62
2022-12-25T02:50:29.153Z,9.87
2022-12-25T02:52:00.507Z,9.36
2022-12-25T02:53:31.817Z,9.34
2022-12-25T02:55:03.123Z,9.40
2022-12-25T02:56:34.558Z,10.85
2022-12-25T02:58:06.027Z,7.80
2022-12-25T02:59:37.410Z,10.29
2022-12-25T03:01:08.896Z,9.70
2022-12-25T03:02:40.240Z,9.84
2022-12-25T03:04:11.511Z,9.10
2022-12-25T03:05:42.971Z,10.15
2022-12-25T03:07:14.333Z,9.79
2022-12-25T03:08:45.600Z,9.75
2022-12-25T03:10:16.901Z,9.51
2022-12-25T03:11:48.248Z,9.93
2022-12-25T03:13:19.546Z,7.44
2022-12-25T03:14:50.861Z,8.70
2022-12-25T03:16:22.183Z,8.96
2022-12-25T03:17:53.464Z,9.74
2022-12-25T03:19:24.886Z,10.13
2022-12-25T03:20:56.270Z,9.48
2022-12-25T03:22:27.608Z,9.06
2022-12-25T03:23:59.442Z,8.88
2022-12-25T03:25:30.748Z,8.71
2022-12-25T03:27:02.025Z,8.79
2022-12-25T03:28:33.553Z,10.16
2022-12-25T03:30:05.141Z,8.52
2022-12-25T03:31:36.694Z,7.75
2022-12-25T03:33:23.262Z,8.59
2022-12-25T03:35:08.337Z,9.12
2022-12-25T03:36:39.666Z,8.16
2022-12-25T03:38:11.140Z,9.07
2022-12-25T03:39:42.613Z,9.52
2022-12-25T03:41:14.043Z,10.15
2022-12-25T03:42:45.326Z,11.05
2022-12-25T03:44:16.631Z,10.14
2022-12-25T03:45:48.189Z,9.34
2022-12-25T03:47:19.528Z,8.42
2022-12-25T03:48:51.046Z,8.38
2022-12-25T03:50:22.287Z,9.79
2022-12-25T03:51:54.084Z,8.15
2022-12-25T03:53:25.314Z,9.95
2022-12-25T03:54:56.663Z,10.25
2022-12-25T03:56:28.103Z,8.88
2022-12-25T03:57:59.624Z,9.84
2022-12-25T03:59:30.990Z,9.88
2022-12-25T04:01:02.403Z,8.66
2022-12-25T04:02:33.869Z,9.47
2022-12-25T04:04:05.177Z,8.04
2022-12-25T04:05:36.520Z,9.90
2022-12-25T04:07:07.930Z,10.25
2022-12-25T04:08:39.216Z,10.42
2022-12-25T04:10:10.523Z,11.08
2022-12-25T04:11:42.029Z,8.79
2022-12-25T04:13:13.332Z,7.96
2022-12-25T04:14:44.659Z,9.90
2022-12-25T04:16:16.001Z,8.57
2022-12-25T04:17:47.406Z,9.64
2022-12-25T04:19:18.861Z,10.43
2022-12-25T04:20:50.137Z,9.75
2022-12-25T04:22:21.524Z,10.51
2022-12-25T04:23:52.871Z,8.27
2022-12-25T04:25:24.204Z,8.74
2022-12-25T04:26:55.520Z,10.34
2022-12-25T04:28:26.935Z,9.79
2022-12-25T04:29:58.221Z,9.52
2022-12-25T04:31:29.703Z,11.24
2022-12-25T04:33:01.032Z,13.18
2022-12-25T04:34:32.280Z,11.59
2022-12-25T04:36:03.548Z,11.36
2022-12-25T04:37:34.804Z,12.08
2022-12-25T04:39:06.105Z,10.74
2022-12-25T04:40:37.630Z,10.94
2022-12-25T04:42:08.889Z,11.16
2022-12-25T04:43:40.150Z,10.39
2022-12-25T04:45:11.552Z,9.62
2022-12-25T04:46:42.964Z,10.77
2022-12-25T04:48:14.382Z,7.85
2022-12-25T04:49:45.771Z,10.47
2022-12-25T04:51:17.097Z,12.05
2022-12-25T04:52:48.531Z,10.73
2022-12-25T04:54:24.838Z,9.21
2022-12-25T04:55:56.284Z,9.59
2022-12-25T04:57:28.065Z,10.49
2022-12-25T04:58:59.568Z,11.15
2022-12-25T05:00:30.995Z,11.12
2022-12-25T05:02:02.506Z,11.19
2022-12-25T05:03:34.359Z,8.46
2022-12-25T05:05:05.856Z,9.19
2022-12-25T05:06:37.278Z,9.81
2022-12-25T05:08:08.584Z,12.14
2022-12-25T05:09:39.918Z,12.25
2022-12-25T05:11:11.348Z,10.89
2022-12-25T05:12:43.109Z,9.47
2022-12-25T05:14:14.600Z,9.94
2022-12-25T05:15:46.049Z,12.91
2022-12-25T05:17:17.531Z,13.11
2022-12-25T05:18:48.919Z,10.20
2022-12-25T05:20:20.205Z,8.30
2022-12-25T05:21:51.547Z,10.67
2022-12-25T05:23:22.923Z,9.55
2022-12-25T05:24:54.207Z,9.47
2022-12-25T05:26:25.751Z,10.64
2022-12-25T05:27:57.137Z,12.02
2022-12-25T05:29:28.494Z,10.06
2022-12-25T05:31:00.411Z,9.37
2022-12-25T05:32:31.865Z,11.22
2022-12-25T05:34:03.316Z,10.31
2022-12-25T05:35:34.646Z,12.21
2022-12-25T05:37:06.028Z,12.06
2022-12-25T05:38:37.363Z,11.14
2022-12-25T05:40:08.712Z,10.40
2022-12-25T05:41:39.980Z,8.58
2022-12-25T05:43:11.217Z,9.67
2022-12-25T05:44:42.944Z,10.92
2022-12-25T05:46:14.311Z,9.63
2022-12-25T05:47:45.615Z,11.01
2022-12-25T05:49:16.923Z,8.30
2022-12-25T05:50:48.241Z,10.57
2022-12-25T05:52:19.629Z,10.70
2022-12-25T05:53:50.987Z,8.62
2022-12-25T05:55:22.240Z,8.77
2022-12-25T05:56:53.641Z,11.05
2022-12-25T05:58:24.969Z,9.87
2022-12-25T05:59:56.389Z,9.30
2022-12-25T06:01:28.192Z,9.81
2022-12-25T06:03:00.024Z,10.32
2022-12-25T06:04:31.492Z,10.56
2022-12-25T06:06:02.755Z,10.86
2022-12-25T06:07:34.149Z,11.72
2022-12-25T06:09:05.445Z,8.04
2022-12-25T06:10:36.773Z,11.02
2022-12-25T06:12:08.225Z,10.76
2022-12-25T06:13:39.459Z,10.20
2022-12-25T06:15:10.775Z,8.94
2022-12-25T06:16:42.682Z,8.66
2022-12-25T06:18:13.933Z,11.64
2022-12-25T06:19:45.481Z,11.84
2022-12-25T06:21:16.831Z,8.28
2022-12-25T06:22:48.176Z,11.82
2022-12-25T06:24:21.627Z,8.58
2022-12-25T06:25:53.051Z,9.16
2022-12-25T06:27:24.567Z,10.09
2022-12-25T06:28:55.986Z,9.06
2022-12-25T06:30:27.524Z,10.60
2022-12-25T06:31:58.962Z,8.70
2022-12-25T06:33:30.436Z,10.23
2022-12-25T06:35:01.729Z,9.49
2022-12-25T06:36:33.023Z,10.29
2022-12-25T06:38:04.268Z,10.20
2022-12-25T06:39:35.486Z,8.65
2022-12-25T06:41:06.865Z,10.63
2022-12-25T06:42:38.070Z,7.62
2022-12-25T06:44:10.537Z,10.11
2022-12-25T06:45:41.954Z,8.00
2022-12-25T06:47:13.324Z,9.42
2022-12-25T06:48:44.804Z,8.46
2022-12-25T06:50:16.093Z,7.87
2022-12-25T06:51:47.487Z,8.62
2022-12-25T06:53:18.779Z,8.31
2022-12-25T06:54:51.192Z,9.78
2022-12-25T06:56:22.761Z,10.20
2022-12-25T06:57:54.093Z,9.94
2022-12-25T06:59:25.601Z,8.70
2022-12-25T07:00:57.356Z,11.99
2022-12-25T07:02:29.115Z,8.98
2022-12-25T07:04:00.647Z,8.40
2022-12-25T07:05:32.118Z,8.39
2022-12-25T07:07:08.433Z,10.18
2022-12-25T07:08:40.440Z,10.00
2022-12-25T07:10:11.834Z,8.68
2022-12-25T07:11:43.240Z,7.48
2022-12-25T07:13:14.462Z,7.71
2022-12-25T07:14:46.105Z,8.86
2022-12-25T07:16:17.567Z,8.89
2022-12-25T07:17:48.884Z,8.01
2022-12-25T07:19:20.251Z,7.65
2022-12-25T07:20:51.988Z,9.58
2022-12-25T07:22:23.543Z,11.40
2022-12-25T07:23:54.812Z,10.53
2022-12-25T07:25:27.356Z,8.03
2022-12-25T07:27:01.438Z,9.74
2022-12-25T07:28:32.910Z,7.92
2022-12-25T07:30:04.283Z,9.34
2022-12-25T07:31:35.641Z,8.93
2022-12-25T07:33:06.915Z,9.73
2022-12-25T07:34:38.505Z,7.89
2022-12-25T07:36:12.805Z,8.37
2022-12-25T07:37:44.842Z,7.52
2022-12-25T07:39:16.294Z,7.43
2022-12-25T07:40:47.668Z,7.05
2022-12-25T07:42:23.434Z,8.41
2022-12-25T07:43:56.558Z,8.35
2022-12-25T07:45:28.316Z,10.36
2022-12-25T07:46:59.682Z,10.95
2022-12-25T07:48:30.967Z,8.09
2022-12-25T07:50:02.505Z,9.40
2022-12-25T07:51:34.012Z,9.88
2022-12-25T07:53:05.288Z,9.93
2022-12-25T07:54:36.709Z,11.09
2022-12-25T07:56:08.113Z,11.23
2022-12-25T07:57:39.660Z,8.35
2022-12-25T07:59:11.173Z,9.41
2022-12-25T08:00:42.521Z,8.79
2022-12-25T08:02:14.220Z,8.79
2022-12-25T08:03:45.860Z,11.27
2022-12-25T08:05:17.319Z,10.10
2022-12-25T08:06:48.701Z,9.25
2022-12-25T08:08:20.029Z,11.55
2022-12-25T08:09:51.317Z,11.67
2022-12-25T08:11:22.643Z,10.83
2022-12-25T08:12:54.048Z,7.77
2022-12-25T08:14:25.993Z,11.10
2022-12-25T08:15:57.290Z,12.58
2022-12-25T08:17:28.612Z,10.31
2022-12-25T08:19:00.219Z,10.31
2022-12-25T08:20:31.524Z,10.49
2022-12-25T08:22:02.814Z,10.75
2022-12-25T08:23:34.046Z,9.51
2022-12-25T08:25:05.469Z,11.01
2022-12-25T08:26:36.813Z,11.46
2022-12-25T08:28:08.384Z,11.67
2022-12-25T08:29:39.961Z,12.22
2022-12-25T08:31:11.316Z,10.95
2022-12-25T08:32:42.845Z,11.28
2022-12-25T08:34:14.340Z,8.60
2022-12-25T08:35:45.604Z,9.68
2022-12-25T08:37:17.025Z,12.68
2022-12-25T08:38:48.398Z,10.43
2022-12-25T08:40:20.070Z,10.12
2022-12-25T08:41:51.424Z,11.16
2022-12-25T08:43:22.732Z,10.99
2022-12-25T08:44:54.265Z,12.02
2022-12-25T08:46:25.996Z,10.40
2022-12-25T08:47:57.403Z,11.80
2022-12-25T08:49:28.881Z,9.97
2022-12-25T08:51:00.484Z,10.55
2022-12-25T08:52:31.801Z,9.49
2022-12-25T08:54:03.123Z,9.40
2022-12-25T08:55:34.631Z,9.40
2022-12-25T08:57:05.911Z,13.01
2022-12-25T08:58:37.316Z,12.53
2022-12-25T09:00:10.159Z,10.84
2022-12-25T09:01:41.605Z,9.73
2022-12-25T09:03:13.153Z,11.75
2022-12-25T09:04:44.609Z,10.26
2022-12-25T09:06:16.001Z,10.66
2022-12-25T09:07:47.527Z,8.36
2022-12-25T09:09:18.820Z,10.13
2022-12-25T09:10:50.172Z,11.34
2022-12-25T09:12:21.557Z,9.77
2022-12-25T09:13:53.066Z,9.79
2022-12-25T09:15:24.485Z,9.94
2022-12-25T09:16:55.894Z,8.65
2022-12-25T09:18:27.233Z,9.47
2022-12-25T09:19:58.629Z,9.57
2022-12-25T09:21:30.053Z,11.14
2022-12-25T09:23:01.591Z,9.49
2022-12-25T09:24:33.018Z,9.56
2022-12-25T09:26:04.393Z,9.26
2022-12-25T09:27:35.706Z,9.13
2022-12-25T09:29:07.174Z,11.08
2022-12-25T09:30:38.876Z,11.82
2022-12-25T09:32:10.370Z,8.85
2022-12-25T09:33:41.766Z,8.31
2022-12-25T09:35:13.077Z,10.99
2022-12-25T09:36:44.467Z,10.62
2022-12-25T09:38:15.831Z,9.05
2022-12-25T09:39:47.241Z,10.22
2022-12-25T09:41:18.837Z,12.19
2022-12-25T09:42:50.215Z,9.07
2022-12-25T09:44:21.619Z,8.69
2022-12-25T09:45:53.252Z,13.12
2022-12-25T09:47:24.580Z,10.03
2022-12-25T09:48:55.814Z,9.59
2022-12-25T09:50:27.258Z,10.56
2022-12-25T09:51:58.678Z,8.76
2022-12-25T09:53:29.942Z,12.17
2022-12-25T09:55:01.283Z,10.39
2022-12-25T09:56:32.796Z,7.90
2022-12-25T09:58:04.388Z,8.21
2022-12-25T09:59:35.907Z,9.66
2022-12-25T10:01:07.496Z,7.71
2022-12-25T10:02:39.367Z,11.30
2022-12-25T10:04:10.916Z,11.34
2022-12-25T10:05:42.204Z,11.54
2022-12-25T10:07:18.556Z,8.95
2022-12-25T10:08:49.821Z,8.79
2022-12-25T10:10:21.196Z,9.97
2022-12-25T10:11:52.602Z,9.40
2022-12-25T10:13:23.919Z,7.64
2022-12-25T10:14:55.648Z,11.89
2022-12-25T10:16:27.315Z,9.85
2022-12-25T10:17:58.607Z,9.78
2022-12-25T10:19:29.909Z,14.21
2022-12-25T10:21:01.390Z,10.65
2022-12-25T10:22:32.875Z,8.05
2022-12-25T10:24:04.115Z,10.24
2022-12-25T10:25:35.592Z,8.95
2022-12-25T10:27:07.161Z,8.81
2022-12-25T10:28:38.476Z,6.86
2022-12-25T10:30:09.752Z,9.58
2022-12-25T10:31:41.121Z,6.91
2022-12-25T10:33:16.861Z,7.85
2022-12-25T10:34:48.896Z,7.17
2022-12-25T10:36:20.307Z,5.33
2022-12-25T10:37:51.718Z,5.63
2022-12-25T10:39:23.008Z,5.90
2022-12-25T10:40:54.393Z,6.71
2022-12-25T10:42:26.023Z,7.19
2022-12-25T10:43:57.565Z,5.96
2022-12-25T10:45:28.923Z,6.39
2022-12-25T10:47:00.275Z,6.79
2022-12-25T10:48:31.676Z,6.92
2022-12-25T10:50:03.149Z,7.27
2022-12-25T10:51:34.594Z,7.07
2022-12-25T10:53:06.012Z,6.27
2022-12-25T10:54:37.436Z,7.17
2022-12-25T10:56:08.677Z,5.76
2022-12-25T10:57:40.091Z,5.45
2022-12-25T10:59:11.328Z,6.29
2022-12-25T11:00:42.779Z,6.58
2022-12-25T11:02:14.230Z,4.66
2022-12-25T11:03:45.838Z,4.81
2022-12-25T11:05:17.322Z,6.23
2022-12-25T11:06:48.632Z,5.67
2022-12-25T11:08:19.939Z,4.36
2022-12-25T11:09:51.379Z,5.38
2022-12-25T11:11:22.923Z,6.38
2022-12-25T11:12:55.052Z,6.32
2022-12-25T11:14:26.657Z,4.21
2022-12-25T11:15:58.227Z,4.41
2022-12-25T11:17:29.535Z,4.80
2022-12-25T11:19:00.958Z,5.34
2022-12-25T11:20:34.580Z,5.79
2022-12-25T11:22:05.877Z,5.35
2022-12-25T11:23:37.306Z,4.88
2022-12-25T11:25:08.614Z,5.56
2022-12-25T11:26:40.132Z,5.13
2022-12-25T11:28:11.516Z,5.39
2022-12-25T11:29:42.807Z,5.64
2022-12-25T11:31:14.192Z,3.83
2022-12-25T11:32:45.573Z,5.19
2022-12-25T11:34:16.919Z,5.86
2022-12-25T11:35:48.412Z,3.21
2022-12-25T11:37:19.729Z,3.46
2022-12-25T11:38:51.030Z,2.88
2022-12-25T11:40:22.317Z,3.96
2022-12-25T11:41:53.961Z,3.85
2022-12-25T11:43:25.235Z,4.10
2022-12-25T11:44:56.572Z,4.27
2022-12-25T11:46:28.091Z,4.40
2022-12-25T11:47:59.472Z,3.67
2022-12-25T11:49:30.796Z,3.24
2022-12-25T11:51:02.594Z,3.59
2022-12-25T11:52:34.018Z,3.35
2022-12-25T11:54:05.326Z,3.29
2022-12-25T11:55:36.789Z,4.95
2022-12-25T11:57:08.225Z,3.75
2022-12-25T11:58:39.557Z,4.01
2022-12-25T12:00:10.837Z,3.11
2022-12-25T12:01:42.134Z,4.00
2022-12-25T12:03:13.739Z,3.58
2022-12-25T12:04:46.346Z,3.51
2022-12-25T12:06:17.751Z,2.94
2022-12-25T12:07:49.032Z,3.81
2022-12-25T12:09:20.390Z,3.53
2022-12-25T12:10:51.675Z,3.32
2022-12-25T12:12:23.331Z,3.12
2022-12-25T12:13:59.693Z,3.61
2022-12-25T12:15:31.013Z,3.28
2022-12-25T12:17:02.464Z,3.39
2022-12-25T12:18:33.778Z,3.90
2022-12-25T12:20:05.230Z,3.38
2022-12-25T12:21:36.611Z,2.66
2022-12-25T12:23:08.001Z,2.80
2022-12-25T12:24:39.686Z,3.97
2022-12-25T12:26:11.121Z,3.86
2022-12-25T12:27:42.580Z,3.95
2022-12-25T12:29:13.852Z,3.39
2022-12-25T12:30:45.219Z,4.53
2022-12-25T12:32:18.221Z,4.98
2022-12-25T12:33:49.611Z,5.80
2022-12-25T12:35:21.274Z,3.24
2022-12-25T12:36:52.684Z,3.25
2022-12-25T12:38:24.003Z,5.41
2022-12-25T12:39:55.255Z,4.87
2022-12-25T12:41:26.620Z,4.08
2022-12-25T12:42:58.106Z,4.88
2022-12-25T12:44:29.503Z,7.12
2022-12-25T12:46:26.126Z,7.92
2022-12-25T12:48:01.692Z,7.12
2022-12-25T12:49:33.032Z,5.90
2022-12-25T12:51:04.441Z,4.95
2022-12-25T12:52:35.984Z,6.60
2022-12-25T12:54:07.422Z,6.38
2022-12-25T12:55:38.827Z,4.21
2022-12-25T12:57:10.724Z,4.06
2022-12-25T12:58:42.092Z,4.49
2022-12-25T13:00:13.644Z,5.30
2022-12-25T13:01:45.272Z,5.29
2022-12-25T13:03:16.783Z,4.94
2022-12-25T13:04:48.111Z,5.26
2022-12-25T13:06:19.411Z,7.26
2022-12-25T13:07:50.765Z,6.56
2022-12-25T13:09:22.418Z,6.67
2022-12-25T13:10:53.807Z,6.50
2022-12-25T13:12:25.863Z,4.92
2022-12-25T13:13:57.317Z,6.24
2022-12-25T13:15:28.909Z,5.47
2022-12-25T13:17:00.628Z,6.35
2022-12-25T13:18:31.958Z,7.46
2022-12-25T13:20:03.355Z,7.21
2022-12-25T13:21:34.903Z,7.93
2022-12-25T13:23:06.150Z,8.10
2022-12-25T13:24:37.788Z,8.75
2022-12-25T13:26:09.221Z,9.26
2022-12-25T13:27:40.536Z,6.56
2022-12-25T13:29:11.925Z,6.41
2022-12-25T13:30:43.241Z,7.78
2022-12-25T13:32:14.963Z,7.02
2022-12-25T13:33:46.402Z,6.53
2022-12-25T13:35:17.784Z,8.27
2022-12-25T13:36:49.217Z,9.32
2022-12-25T13:38:20.800Z,8.55
2022-12-25T13:39:52.294Z,7.61
2022-12-25T13:41:23.752Z,7.37
2022-12-25T13:42:55.164Z,9.54
2022-12-25T13:44:26.652Z,9.14
2022-12-25T13:45:58.006Z,8.49
2022-12-25T13:47:29.324Z,9.41
2022-12-25T13:49:00.645Z,7.85
2022-12-25T13:50:32.477Z,9.62
2022-12-25T13:52:04.031Z,11.15
2022-12-25T13:53:35.382Z,8.74
2022-12-25T13:55:06.777Z,9.67
2022-12-25T13:56:38.028Z,9.54
2022-12-25T13:58:09.309Z,9.00
2022-12-25T13:59:40.934Z,9.96
2022-12-25T14:01:12.283Z,8.40
2022-12-25T14:02:43.647Z,10.99
2022-12-25T14:04:14.998Z,11.69
2022-12-25T14:05:46.387Z,11.44
2022-12-25T14:07:17.774Z,10.78
2022-12-25T14:08:50.701Z,11.94
2022-12-25T14:10:22.230Z,13.41
2022-12-25T14:11:53.525Z,11.80
2022-12-25T14:13:25.428Z,11.77
2022-12-25T14:14:56.952Z,12.16
2022-12-25T14:16:28.355Z,9.57
2022-12-25T14:18:01.021Z,10.87
2022-12-25T14:19:32.596Z,13.57
2022-12-25T14:21:03.879Z,11.53
2022-12-25T14:22:40.403Z,12.24
2022-12-25T14:24:11.664Z,13.44
2022-12-25T14:25:43.236Z,9.94
2022-12-25T14:27:15.099Z,14.51
2022-12-25T14:28:46.893Z,13.46
2022-12-25T14:30:18.691Z,18.27
2022-12-25T14:31:50.149Z,15.39
2022-12-25T14:33:21.391Z,13.11
2022-12-25T14:34:52.708Z,12.24
2022-12-25T14:36:24.012Z,15.66
2022-12-25T14:37:55.289Z,17.90
2022-12-25T14:39:26.794Z,14.35
2022-12-25T14:40:58.279Z,12.80
2022-12-25T14:42:29.580Z,15.88
2022-12-25T14:44:00.971Z,14.77
2022-12-25T14:45:32.365Z,14.73
2022-12-25T14:47:03.698Z,13.12
2022-12-25T14:48:35.040Z,12.18
2022-12-25T14:50:06.609Z,12.59
2022-12-25T14:51:38.028Z,12.86
2022-12-25T14:53:09.608Z,14.37
2022-12-25T14:54:41.717Z,15.17
2022-12-25T14:56:13.123Z,13.76
2022-12-25T14:57:44.488Z,17.57
2022-12-25T14:59:16.725Z,15.12
2022-12-25T15:00:48.098Z,13.02
2022-12-25T15:02:19.637Z,12.59
2022-12-25T15:03:51.002Z,13.78
2022-12-25T15:05:22.324Z,14.61
2022-12-25T15:06:53.682Z,12.10
2022-12-25T15:08:25.598Z,14.86
2022-12-25T15:10:25.546Z,13.02
2022-12-25T15:12:18.385Z,12.32
2022-12-25T15:13:49.778Z,10.40
2022-12-25T15:15:21.091Z,11.96
2022-12-25T15:16:52.477Z,12.43
2022-12-25T15:18:23.798Z,12.02
2022-12-25T15:19:55.230Z,10.80
2022-12-25T15:21:26.729Z,10.24
2022-12-25T15:23:18.266Z,10.39
2022-12-25T15:24:53.558Z,11.83
2022-12-25T15:26:27.322Z,11.77
2022-12-25T15:27:58.669Z,13.67
2022-12-25T15:30:07.911Z,12.51
2022-12-25T15:31:40.288Z,12.11
2022-12-25T15:33:11.569Z,13.17
2022-12-25T15:34:42.964Z,11.22
2022-12-25T15:36:14.295Z,12.37
2022-12-25T15:37:45.618Z,13.69
2022-12-25T15:39:17.322Z,10.41
2022-12-25T15:40:48.721Z,9.84
2022-12-25T15:42:20.891Z,11.17
2022-12-25T15:43:52.213Z,12.92
2022-12-25T15:45:23.685Z,11.27
2022-12-25T15:46:55.144Z,10.91
2022-12-25T15:48:26.447Z,10.96
2022-12-25T15:49:57.992Z,12.16
2022-12-25T15:51:29.279Z,11.55
2022-12-25T15:53:00.731Z,10.73
2022-12-25T15:54:32.333Z,12.42
2022-12-25T15:56:03.712Z,11.53
2022-12-25T15:57:34.929Z,11.53
2022-12-25T15:59:06.570Z,11.71
2022-12-25T16:00:37.889Z,12.50
2022-12-25T16:02:09.578Z,13.95
2022-12-25T16:03:41.149Z,10.13
2022-12-25T16:05:12.489Z,8.53
2022-12-25T16:06:43.814Z,10.47
2022-12-25T16:08:15.185Z,13.64
2022-12-25T16:09:46.479Z,9.95
2022-12-25T16:11:17.964Z,9.74
2022-12-25T16:12:49.579Z,11.69
2022-12-25T16:14:22.065Z,11.07
2022-12-25T16:15:53.507Z,9.01
2022-12-25T16:17:24.937Z,12.37
2022-12-25T16:18:56.443Z,11.25
2022-12-25T16:20:27.745Z,10.28
2022-12-25T16:21:59.194Z,12.04
2022-12-25T16:23:30.885Z,11.55
2022-12-25T16:25:02.846Z,12.56
2022-12-25T16:26:34.403Z,9.67
2022-12-25T16:28:05.792Z,11.52
2022-12-25T16:29:37.302Z,10.03
2022-12-25T16:31:09.021Z,10.37
2022-12-25T16:32:40.326Z,10.11
2022-12-25T16:34:12.092Z,9.96
2022-12-25T16:35:43.609Z,9.79
2022-12-25T16:37:15.004Z,11.54
2022-12-25T16:38:46.413Z,13.60
2022-12-25T16:40:17.876Z,12.94
2022-12-25T16:41:49.239Z,11.88
2022-12-25T16:43:24.088Z,12.37
2022-12-25T16:44:55.916Z,11.78
2022-12-25T16:46:27.255Z,9.19
2022-12-25T16:47:58.729Z,11.60
2022-12-25T16:49:30.249Z,10.11
2022-12-25T16:51:02.175Z,13.85
2022-12-25T16:52:33.667Z,9.75
2022-12-25T16:54:05.332Z,10.12
2022-12-25T16:55:36.813Z,10.21
2022-12-25T16:57:08.316Z,9.09
2022-12-25T16:58:39.622Z,7.22
2022-12-25T17:00:10.995Z,9.02
2022-12-25T17:01:51.851Z,9.75
2022-12-25T17:03:23.394Z,7.45
2022-12-25T17:04:54.895Z,7.82
2022-12-25T17:06:26.415Z,8.72
2022-12-25T17:07:57.788Z,9.18
2022-12-25T17:09:29.112Z,8.32
2022-12-25T17:11:00.511Z,8.14
2022-12-25T17:12:32.079Z,8.23
2022-12-25T17:14:03.765Z,8.57
2022-12-25T17:15:35.203Z,8.22
2022-12-25T17:17:11.969Z,6.82
2022-12-25T17:18:43.496Z,7.94
2022-12-25T17:20:14.807Z,7.59
2022-12-25T17:21:46.426Z,9.32
2022-12-25T17:23:28.285Z,7.66
2022-12-25T17:25:00.115Z,7.28
2022-12-25T17:26:58.566Z,9.04
2022-12-25T17:28:30.997Z,8.47
2022-12-25T17:30:08.262Z,8.35
2022-12-25T17:31:50.047Z,7.74
2022-12-25T17:33:32.344Z,7.11
2022-12-25T17:35:03.807Z,7.57
2022-12-25T17:36:35.301Z,6.37
2022-12-25T17:38:07.001Z,8.72
2022-12-25T17:39:38.938Z,7.22
2022-12-25T17:41:10.581Z,7.15
2022-12-25T17:42:43.291Z,7.27
2022-12-25T17:44:14.702Z,7.10
2022-12-25T17:45:46.148Z,7.66
2022-12-25T17:47:17.657Z,7.20
2022-12-25T17:48:49.236Z,8.08
2022-12-25T17:50:20.680Z,8.62
2022-12-25T17:52:02.089Z,8.22
2022-12-25T17:53:33.427Z,7.55
2022-12-25T17:55:04.925Z,7.07
2022-12-25T17:56:36.218Z,7.56
2022-12-25T17:58:07.639Z,8.15
2022-12-25T17:59:39.421Z,6.20
2022-12-25T18:01:11.109Z,7.88
2022-12-25T18:02:42.676Z,7.30
2022-12-25T18:04:14.378Z,7.02
2022-12-25T18:05:45.787Z,6.37
2022-12-25T18:07:17.099Z,7.51
2022-12-25T18:08:48.474Z,7.34
2022-12-25T18:10:19.963Z,6.71
2022-12-25T18:11:51.383Z,7.06
2022-12-25T18:13:23.066Z,6.24
2022-12-25T18:14:54.560Z,8.55
2022-12-25T18:16:26.747Z,8.96
2022-12-25T18:17:58.106Z,9.27
2022-12-25T18:19:29.531Z,7.70
2022-12-25T18:21:01.209Z,6.65
2022-12-25T18:22:33.903Z,8.04
2022-12-25T18:24:05.306Z,8.39
2022-12-25T18:25:36.685Z,6.87
2022-12-25T18:27:08.356Z,8.74
2022-12-25T18:28:39.993Z,9.45
2022-12-25T18:30:11.509Z,8.44
2022-12-25T18:31:43.102Z,8.25
2022-12-25T18:33:14.578Z,7.83
2022-12-25T18:34:45.982Z,8.99
2022-12-25T18:36:17.348Z,9.36
2022-12-25T18:37:48.788Z,9.13
2022-12-25T18:39:20.377Z,10.35
2022-12-25T18:40:51.658Z,10.79
2022-12-25T18:42:22.953Z,9.63
2022-12-25T18:43:55.903Z,9.45
2022-12-25T18:45:27.767Z,9.96
2022-12-25T18:46:59.366Z,10.77
2022-12-25T18:48:30.907Z,10.48
2022-12-25T18:50:02.148Z,10.03
2022-12-25T18:51:37.019Z,10.74
2022-12-25T18:53:08.695Z,9.84
2022-12-25T18:54:40.068Z,9.87
2022-12-25T18:56:11.294Z,11.26
2022-12-25T18:57:42.649Z,10.67
2022-12-25T18:59:13.930Z,10.75
2022-12-25T19:00:46.055Z,10.78
2022-12-25T19:02:17.489Z,11.92
2022-12-25T19:03:49.355Z,10.37
2022-12-25T19:05:20.809Z,10.31
2022-12-25T19:06:52.228Z,10.88
2022-12-25T19:08:23.693Z,10.21
2022-12-25T19:09:55.081Z,9.92
2022-12-25T19:11:27.093Z,12.08
2022-12-25T19:12:58.534Z,11.28
2022-12-25T19:14:29.832Z,11.16
2022-12-25T19:16:19.273Z,10.57
2022-12-25T19:17:50.748Z,10.31
2022-12-25T19:19:22.057Z,11.47
2022-12-25T19:20:53.593Z,10.56
2022-12-25T19:22:26.224Z,10.20
2022-12-25T19:23:57.798Z,9.86
2022-12-25T19:25:29.093Z,10.80
2022-12-25T19:27:00.639Z,10.00
2022-12-25T19:28:33.193Z,8.85
2022-12-25T19:30:04.510Z,10.28
2022-12-25T19:31:37.298Z,11.11
2022-12-25T19:33:12.421Z,10.44
2022-12-25T19:34:48.718Z,9.88
2022-12-25T19:36:20.116Z,9.38
2022-12-25T19:37:51.456Z,9.09
2022-12-25T19:39:22.864Z,8.98
2022-12-25T19:40:59.700Z,8.21
2022-12-25T19:42:32.323Z,9.17
2022-12-25T19:44:04.036Z,8.84
2022-12-25T19:45:35.670Z,8.69
2022-12-25T19:47:07.126Z,8.10
2022-12-25T19:48:38.796Z,8.48
2022-12-25T19:50:13.422Z,9.86
2022-12-25T19:51:44.907Z,7.90
2022-12-25T19:53:16.246Z,9.28
2022-12-25T19:54:47.840Z,9.32
2022-12-25T19:56:19.203Z,9.78
2022-12-25T19:57:55.641Z,9.10
2022-12-25T19:59:27.104Z,9.42
2022-12-25T20:01:08.707Z,10.83
2022-12-25T20:02:40.321Z,8.72
2022-12-25T20:04:22.037Z,10.73
2022-12-25T20:05:53.368Z,8.98